Tiempo atmosférico en la estación meteorológica de Benahavis, Málaga (399 m.)



Fecha
DESCASC
Temp. máxima en grados centígrados (hora)
DESCASC
Temp. mínima en grados centígrados (hora)
DESCASC
Temp. media en grados centígrados
DESCASC
Racha de viento máxima en m/sg (hora)
DESCASC
Velocidad máxima media en intervalos de 10 minutos(hora)
DESCASC
Precipitaciones diarias en mm
DESCASC
Precipitaciones de 00:00 a 06:00 en mm
DESCASC
Precipitaciones de 06:00 a 12:00 en mm
DESCASC
Precipitaciones de 12:00 a 18:00 en mm
DESCASC
Precipitaciones de 18:00 a 24:00 en mm
DESCASC
11-05-2019 28.8 (15:30) 19.6 (00:00) 24.2 6.39 (16:10) 3.33 (01:30) 0 0 0 0 0
25-05-2019 22 (15:30) 15.2 (00:00) 18.6 11.11 (01:20) 6.39 (01:30) 0 0 0 0 0
24-05-2019 30.5 (15:40) 17.4 (00:00) 23.9 10 (15:10) 5.83 (14:40) 0 0 0 0 0
23-05-2019 27.2 (17:00) 14.9 (00:00) 21.1 6.39 (16:50) 3.61 (17:30) 0 0 0 0 0
22-05-2019 22.6 (15:00) 14.1 (00:00) 18.4 5.56 (15:10) 2.78 (12:50) 0 0 0 0 0
21-05-2019 26 (16:10) 16 (06:10) 21 6.67 (16:40) 2.78 (14:50) 0 0 0 0 0
20-05-2019 25.3 (16:50) 14.7 (06:10) 20 6.67 (10:50) 3.61 (15:50) 0 0 0 0 0
19-05-2019 26.5 (16:20) 14 (00:00) 20.3 9.17 (13:40) 4.17 (13:30) 0 0 0 0 0
18-05-2019 24.4 (16:00) 13.7 (00:00) 19 12.78 (13:30) 5.83 (13:30) 0 0 0 0 0
17-05-2019 24.8 (16:50) 13.3 (00:00) 19 10.83 (18:20) 5 (17:40) 0 0 0 0 0
16-05-2019 24.9 (02:00) 16.2 (00:00) 20.6 7.78 (23:10) 4.17 (23:10) 0 0 0 0 0
15-05-2019 30.3 (16:40) 12.9 (00:00) 21.6 4.17 (16:10) 2.5 (14:40) 0 0 0 0 0
14-05-2019 21.2 (12:10) 13.7 (00:00) 17.5 9.17 (12:10) 3.61 (14:20) 0 0 0 0 0
13-05-2019 22.2 (13:50) 14.1 (00:00) 18.2 6.67 (12:30) 2.78 (18:30) 0 0 0 0 0
12-05-2019 24.5 (15:10) 15.4 (00:00) 19.9 9.17 (09:10) 4.17 (04:20) 0 0 0 0 0
26-04-2019 20.6 (17:40) 9.9 (00:00) 15.3 8.33 (03:40) 4.72 (08:00) 0 0 0 0 0
10-05-2019 30 (15:50) 17.9 (00:00) 23.9 5.28 (08:30) 3.33 (08:50) 0 0 0 0 0
09-05-2019 26.3 (17:00) 15.4 (00:00) 20.8 5.83 (16:10) 2.78 (12:10) 0 0 0 0 0
08-05-2019 27.5 (16:40) 16.2 (00:00) 21.9 12.5 (14:00) 8.06 (14:50) 0 0 0 0 0
07-05-2019 25.4 (16:10) 15.2 (00:00) 20.3 6.39 (15:10) 3.61 (13:10) 0 0 0 0 0
06-05-2019 27 (17:00) 15.8 (00:00) 21.4 6.94 (15:40) 3.33 (13:40) 0 0 0 0 0
05-05-2019 27 (16:50) 14.6 (00:00) 20.8 6.67 (15:00) 4.17 (14:30) 0 0 0 0 0
04-05-2019 21.4 (18:10) 14.8 (00:00) 18.1 6.67 (01:00) 3.61 (02:40) 0 0 0 0 0
03-05-2019 21.6 (17:10) 11 (00:00) 16.3 6.94 (16:20) 3.06 (16:20) 0 0 0 0 0
02-05-2019 20.9 (14:20) 12.7 (07:30) 16.8 6.94 (14:30) 3.33 (14:30) 0 0 0 0 0
01-05-2019 -- (--) -- (--) -- -- (--) -- (--) -- 0 0 0 --
30-04-2019 22.2 (17:30) 11.5 (00:00) 16.9 5.83 (13:40) 3.06 (12:30) 0 0 0 0 0
29-04-2019 20.1 (12:40) 11.2 (00:00) 15.7 6.94 (15:20) 3.33 (15:20) 0 0 0 0 0
28-04-2019 20.8 (14:20) 12 (00:00) 16.4 9.17 (12:00) 3.61 (13:40) 0 0 0 0 0
27-04-2019 20.7 (14:40) 10.3 (00:00) 15.5 10.56 (12:50) 3.89 (23:50) 0 0 0 0 0

Gráficas

Temp. máximas Temp. mínimas Temp. medias Precipitaciones Rachas de viento máximas Velocidades máximas media en intervalos de 10 minutos

Datos horarios

Fecha y hora oficial Temperatura (ºC) Velocidad del viento (km/h) Dirección del viento Racha (km/h) Dirección de racha Precipitación (mm) Presión (hPa) Tendencia (hPa) Humedad (%)
2019-05-25 23:00:00 15.8 0 Calma 4 Este 0 -- -- 86
2019-05-25 22:00:00 16.4 2 Nordeste 9 Nordeste 0 -- -- 82
2019-05-25 21:00:00 17.3 5 Nordeste 13 Nordeste 0 -- -- 71
2019-05-25 20:00:00 18.4 6 Nordeste 13 Nordeste 0 -- -- 69
2019-05-25 19:00:00 19.9 5 Sudoeste 18 Sudoeste 0 -- -- 63
2019-05-25 18:00:00 20.4 9 Sudeste 20 Sudoeste 0 -- -- 65
2019-05-25 17:00:00 21.1 9 Sudoeste 21 Sur 0 -- -- 61
2019-05-25 16:00:00 22 9 Sur 20 Sudoeste 0 -- -- 59
2019-05-25 15:00:00 21.5 10 Sudoeste 21 Sudoeste 0 -- -- 57
2019-05-25 14:00:00 20.8 7 Sur 21 Sur 0 -- -- 60
2019-05-25 13:00:00 20.3 5 Norte 17 Sur 0 -- -- 60
2019-05-25 12:00:00 20.5 8 Sur 22 Sudoeste 0 -- -- 60
2019-05-25 11:00:00 19.7 6 Sudoeste 14 Sudoeste 0 -- -- 65
2019-05-25 10:00:00 18 3 Norte 11 Nordeste 0 -- -- 72
2019-05-25 09:00:00 16.7 5 Nordeste 14 Nordeste 0 -- -- 79
2019-05-25 08:00:00 16.1 4 Nordeste 11 Este 0 -- -- 81
2019-05-25 07:00:00 16.2 3 Este 10 Sudeste 0 -- -- 80
2019-05-25 06:00:00 16.5 4 Este 13 Este 0 -- -- 78
2019-05-25 05:00:00 16.5 3 Nordeste 16 Nordeste 0 -- -- 78
2019-05-25 04:00:00 16.8 4 Nordeste 24 Nordeste 0 -- -- 76
2019-05-25 03:00:00 17 14 Nordeste 34 Este 0 -- -- 79
2019-05-25 02:00:00 17.9 17 Nordeste 40 Norte 0 -- -- 72
2019-05-25 01:00:00 19 14 Nordeste 31 Nordeste 0 -- -- 62
2019-05-25 00:00:00 21.2 10 Este 27 Este 0 -- -- 52
2019-05-24 23:00:00 22.5 5 Sudoeste 17 Oeste 0 -- -- 41
2019-05-24 22:00:00 22.9 4 Sudoeste 22 Oeste 0 -- -- 42
2019-05-24 21:00:00 24.8 7 Oeste 24 Sudoeste 0 -- -- 41
2019-05-24 20:00:00 26.9 9 Oeste 24 Oeste 0 -- -- 30
2019-05-24 19:00:00 28.5 9 Sudoeste 20 Noroeste 0 -- -- 25
2019-05-24 18:00:00 27.5 9 Norte 19 Nordeste 0 -- -- 25
2019-05-24 17:00:00 26 14 Nordeste 22 Nordeste 0 -- -- 35
2019-05-24 16:00:00 29.5 8 Nordeste 36 Sudoeste 0 -- -- 29
2019-05-24 15:00:00 28.9 21 Sudoeste 34 Sudoeste 0 -- -- 27
2019-05-24 14:00:00 28.3 18 Sudoeste 31 Sudoeste 0 -- -- 25
2019-05-24 13:00:00 26.1 7 Sur 16 Nordeste 0 -- -- 39
2019-05-24 12:00:00 25.4 6 Sur 19 Sudoeste 0 -- -- 36
2019-05-24 11:00:00 23.6 5 Sudoeste 11 Sudoeste 0 -- -- 38
2019-05-24 10:00:00 20.7 0 Calma 3 Nordeste 0 -- -- 48
2019-05-24 09:00:00 19.7 0 Calma 5 Nordeste 0 -- -- 51
2019-05-24 08:00:00 18 0 Calma 4 Este 0 -- -- 50
2019-05-24 07:00:00 17.8 0 Calma 4 Nordeste 0 -- -- 47
2019-05-24 06:00:00 17.5 4 Nordeste 6 Nordeste 0 -- -- 48
2019-05-24 05:00:00 18.1 0 Calma 8 Nordeste 0 -- -- 47
2019-05-24 04:00:00 17.9 4 Nordeste 9 Este 0 -- -- 46
2019-05-24 03:00:00 18.7 5 Este 13 Nordeste 0 -- -- 43
2019-05-24 02:00:00 17.8 4 Nordeste 9 Este 0 -- -- 46
2019-05-24 01:00:00 18.3 5 Nordeste 7 Nordeste 0 -- -- 42
2019-05-24 00:00:00 19.1 4 Este 6 Nordeste 0 -- -- 44
2019-05-23 23:00:00 19.1 3 Nordeste 5 Nordeste 0 -- -- 42
2019-05-23 22:00:00 20.5 0 Calma 3 Sudoeste 0 -- -- 42
2019-05-23 21:00:00 22.9 2 Sudoeste 9 Sudoeste 0 -- -- 37
2019-05-23 20:00:00 24.9 5 Oeste 13 Sudoeste 0 -- -- 34
2019-05-23 19:00:00 25.7 6 Sur 17 Sudoeste 0 -- -- 28
2019-05-23 18:00:00 26 7 Sur 19 Sudoeste 0 -- -- 29
2019-05-23 17:00:00 27.2 8 Sudoeste 23 Sudoeste 0 -- -- 29
2019-05-23 16:00:00 26.2 9 Sur 18 Sur 0 -- -- 30
2019-05-23 15:00:00 25.9 7 Sudeste 19 Sudoeste 0 -- -- 28
2019-05-23 14:00:00 25.7 6 Sur 19 Sudoeste 0 -- -- 27
2019-05-23 13:00:00 25.1 8 Sur 17 Sudoeste 0 -- -- 27
2019-05-23 12:00:00 24.4 6 Sudoeste 15 Oeste 0 -- -- 30
2019-05-23 11:00:00 23.2 3 Sur 10 Nordeste 0 -- -- 32
2019-05-23 10:00:00 21 3 Oeste 13 Nordeste 0 -- -- 37
2019-05-23 09:00:00 18.4 2 Sudoeste 4 Sudoeste 0 -- -- 47
2019-05-23 08:00:00 15.5 2 Sur 4 Nordeste 0 -- -- 58
2019-05-23 07:00:00 15.1 4 Nordeste 8 Este 0 -- -- 56
2019-05-23 06:00:00 15 0 Calma 5 Nordeste 0 -- -- 63
2019-05-23 05:00:00 15 4 Nordeste 6 Nordeste 0 -- -- 63
2019-05-23 04:00:00 15.1 3 Nordeste 4 Este 0 -- -- 63
2019-05-23 03:00:00 15.2 3 Nordeste 4 Nordeste 0 -- -- 67
2019-05-23 02:00:00 15.9 0 Calma 4 Nordeste 0 -- -- 63
2019-05-23 01:00:00 16.1 0 Calma 3 Nordeste 0 -- -- 69
2019-05-23 00:00:00 16.4 0 Calma 2 Este 0 -- -- 69
2019-05-22 23:00:00 16.7 0 Calma 2 Este 0 -- -- 72
2019-05-22 22:00:00 17.5 0 Calma 5 Nordeste 0 -- -- 68
2019-05-22 21:00:00 18.9 3 Oeste 11 Sudoeste 0 -- -- 71
2019-05-22 20:00:00 19.3 5 Sudoeste 15 Nordeste 0 -- -- 71
2019-05-22 19:00:00 19.9 5 Nordeste 18 Nordeste 0 -- -- 63
2019-05-22 18:00:00 20.5 9 Nordeste 18 Nordeste 0 -- -- 56
2019-05-22 17:00:00 21.5 9 Nordeste 19 Nordeste 0 -- -- 52
2019-05-22 16:00:00 22.5 9 Nordeste 20 Este 0 -- -- 47
2019-05-22 15:00:00 22.6 6 Este 18 Norte 0 -- -- 49
2019-05-22 14:00:00 22.3 4 Oeste 19 Sudoeste 0 -- -- 62
2019-05-22 13:00:00 20.7 7 Nordeste 17 Nordeste 0 -- -- 65
2019-05-22 12:00:00 20.6 6 Sudoeste 17 Sudoeste 0 -- -- 65
2019-05-22 11:00:00 19.8 4 Sudoeste 18 Sudoeste 0 -- -- 66
2019-05-22 10:00:00 19.4 4 Sudoeste 12 Nordeste 0 -- -- 57
2019-05-22 09:00:00 17.4 2 Sudoeste 6 Norte 0 -- -- 63
2019-05-22 08:00:00 14.6 4 Nordeste 8 Nordeste 0 -- -- 70
2019-05-22 07:00:00 14.2 4 Nordeste 8 Nordeste 0 -- -- 69
2019-05-22 06:00:00 14.8 5 Nordeste 13 Nordeste 0 -- -- 67
2019-05-22 05:00:00 15.3 6 Este 12 Este 0 -- -- 68
2019-05-22 04:00:00 15.3 4 Nordeste 9 Este 0 -- -- 68
2019-05-22 03:00:00 15.7 3 Nordeste 13 Nordeste 0 -- -- 70
2019-05-22 02:00:00 15.9 0 Calma 5 Nordeste 0 -- -- 77
2019-05-22 01:00:00 16.5 0 Calma 4 Norte 0 -- -- 71
2019-05-22 00:00:00 17.4 0 Calma 9 Nordeste 0 -- -- 69
2019-05-21 23:00:00 18.7 4 Nordeste 9 Nordeste 0 -- -- 61
2019-05-21 22:00:00 20.7 3 Este 9 Este 0 -- -- 54
2019-05-21 21:00:00 21.9 2 Norte 11 Nordeste 0 -- -- 52
2019-05-21 20:00:00 22.8 5 Nordeste 15 Sudoeste 0 -- -- 49
2019-05-21 19:00:00 23.9 6 Sudoeste 15 Norte 0 -- -- 46
2019-05-21 18:00:00 24.2 8 Nordeste 18 Nordeste 0 -- -- 46
2019-05-21 17:00:00 25.8 5 Este 24 Sudoeste 0 -- -- 42
2019-05-21 16:00:00 25.5 6 Sur 22 Sudoeste 0 -- -- 42
2019-05-21 15:00:00 25.9 9 Sudoeste 22 Sudoeste 0 -- -- 39
2019-05-21 14:00:00 25.5 4 Sudoeste 17 Sur 0 -- -- 39
2019-05-21 13:00:00 23.7 7 Sudoeste 19 Sudoeste 0 -- -- 36
2019-05-21 12:00:00 22.9 8 Sudoeste 17 Sudoeste 0 -- -- 38
2019-05-21 11:00:00 21.8 6 Sur 14 Oeste 0 -- -- 44
2019-05-21 10:00:00 21.4 4 Sudoeste 8 Sudoeste 0 -- -- 42
2019-05-21 09:00:00 19.6 0 Calma 6 Sur 0 -- -- 41
2019-05-21 08:00:00 18.2 0 Calma 17 Nordeste 0 -- -- 42
2019-05-21 07:00:00 17.5 7 Nordeste 13 Este 0 -- -- 40
2019-05-21 06:00:00 16.2 4 Nordeste 6 Nordeste 0 -- -- 46
2019-05-21 05:00:00 16.2 3 Este 8 Este 0 -- -- 46
2019-05-21 04:00:00 17.2 4 Nordeste 12 Nordeste 0 -- -- 43
2019-05-21 03:00:00 17.2 4 Este 10 Nordeste 0 -- -- 40
2019-05-21 02:00:00 17.6 5 Nordeste 10 Nordeste 0 -- -- 41
2019-05-21 01:00:00 17.5 0 Calma 4 Sudoeste 0 -- -- 46
2019-05-21 00:00:00 18.1 0 Calma 8 Nordeste 0 -- -- 45
2019-05-20 23:00:00 18.7 0 Calma 5 Sudoeste 0 -- -- 44
2019-05-20 22:00:00 20.6 4 Sudoeste 18 Sudoeste 0 -- -- 39
2019-05-20 21:00:00 22.2 7 Sudoeste 18 Sudoeste 0 -- -- 38
2019-05-20 20:00:00 22.7 9 Nordeste 14 Nordeste 0 -- -- 45
2019-05-20 19:00:00 22.9 9 Nordeste 19 Nordeste 0 -- -- 45
2019-05-20 18:00:00 23.5 7 Nordeste 19 Sur 0 -- -- 45
2019-05-20 17:00:00 25 8 Sudeste 21 Sur 0 -- -- 41
2019-05-20 16:00:00 23 12 Nordeste 22 Nordeste 0 -- -- 48
2019-05-20 15:00:00 24.5 7 Sur 21 Oeste 0 -- -- 42
2019-05-20 14:00:00 24.5 4 Este 19 Sur 0 -- -- 44
2019-05-20 13:00:00 23.5 8 Sur 22 Sur 0 -- -- 47
2019-05-20 12:00:00 22.9 9 Sur 21 Sudoeste 0 -- -- 43
2019-05-20 11:00:00 22.4 9 Sudoeste 24 Sudoeste 0 -- -- 41
2019-05-20 10:00:00 20.6 10 Sudoeste 18 Sudoeste 0 -- -- 44
2019-05-20 09:00:00 18.8 2 Sur 9 Nordeste 0 -- -- 47
2019-05-20 08:00:00 15.4 0 Calma 6 Nordeste 0 -- -- 60
2019-05-20 07:00:00 14.7 0 Calma 9 Nordeste 0 -- -- 60
2019-05-20 06:00:00 14.8 5 Nordeste 10 Este 0 -- -- 60
2019-05-20 05:00:00 15 3 Este 8 Este 0 -- -- 58
2019-05-20 04:00:00 15 3 Este 6 Nordeste 0 -- -- 60
2019-05-20 03:00:00 15.7 0 Calma 4 Sudeste 0 -- -- 60
2019-05-20 02:00:00 17 2 Este 13 Este 0 -- -- 54
2019-05-20 01:00:00 18.3 8 Este 22 Noroeste 0 -- -- 50
2019-05-20 00:00:00 17.7 5 Nordeste 13 Sur 0 -- -- 55
2019-05-19 23:00:00 17.9 9 Sudoeste 23 Oeste 0 -- -- 56
2019-05-19 22:00:00 18.7 8 Sudoeste 22 Sudoeste 0 -- -- 54
2019-05-19 21:00:00 20.2 9 Sudoeste 26 Sudoeste 0 -- -- 46
2019-05-19 20:00:00 22.2 12 Sudoeste 27 Sudoeste 0 -- -- 38
2019-05-19 19:00:00 23.4 10 Sudoeste 32 Sudoeste 0 -- -- 31
2019-05-19 18:00:00 24.3 12 Sudoeste 27 Sudoeste 0 -- -- 27
2019-05-19 17:00:00 25.9 11 Oeste 33 Sudoeste 0 -- -- 24
2019-05-19 16:00:00 26.2 9 Sudoeste 32 Oeste 0 -- -- 23
2019-05-19 15:00:00 25.5 12 Oeste 30 Sudoeste 0 -- -- 22
2019-05-19 14:00:00 24 8 Oeste 33 Sudoeste 0 -- -- 21
2019-05-19 13:00:00 22.7 14 Sudoeste 27 Sudoeste 0 -- -- 23
2019-05-19 12:00:00 20.2 13 Sudoeste 25 Sur 0 -- -- 30
2019-05-19 11:00:00 19.3 6 Nordeste 13 Nordeste 0 -- -- 41
2019-05-19 10:00:00 17.4 4 Sudoeste 12 Nordeste 0 -- -- 44
2019-05-19 09:00:00 14.4 2 Sudoeste 14 Sudoeste 0 -- -- 52
2019-05-19 08:00:00 14 7 Sudoeste 17 Sudoeste 0 -- -- 50
2019-05-19 07:00:00 14.2 3 Sudoeste 15 Sudoeste 0 -- -- 51
2019-05-19 06:00:00 14.2 2 Sudeste 9 Sudoeste 0 -- -- 52
2019-05-19 05:00:00 14.7 4 Sudoeste 23 Noroeste 0 -- -- 53
2019-05-19 04:00:00 14.4 4 Sudoeste 13 Oeste 0 -- -- 54
2019-05-19 03:00:00 14.4 4 Noroeste 13 Norte 0 -- -- 53
2019-05-19 02:00:00 14.1 4 Sudoeste 10 Sudoeste 0 -- -- 60
2019-05-19 01:00:00 15 5 Sudoeste 18 Sudoeste 0 -- -- 56
2019-05-19 00:00:00 15.6 9 Sudoeste 28 Sudoeste 0 -- -- 54
2019-05-18 23:00:00 15.8 10 Sudoeste 20 Sudoeste 0 -- -- 55
2019-05-18 22:00:00 16.8 6 Sudoeste 18 Sudoeste 0 -- -- 52
2019-05-18 21:00:00 18.2 10 Sudoeste 32 Sudoeste 0 -- -- 47
2019-05-18 20:00:00 20.3 19 Sudoeste 33 Sudoeste 0 -- -- 38
2019-05-18 19:00:00 22.1 10 Sudoeste 32 Oeste 0 -- -- 30
2019-05-18 18:00:00 23.3 12 Sudoeste 34 Oeste 0 -- -- 29
2019-05-18 17:00:00 24.1 9 Sudoeste 39 Sudoeste 0 -- -- 27
2019-05-18 16:00:00 24.4 13 Sudoeste 31 Sudoeste 0 -- -- 28
2019-05-18 15:00:00 23.3 10 Oeste 39 Oeste 0 -- -- 25
2019-05-18 14:00:00 22.1 17 Sudoeste 46 Sudoeste 0 -- -- 23
2019-05-18 13:00:00 21.3 18 Sudoeste 37 Sudoeste 0 -- -- 25
2019-05-18 12:00:00 20 10 Sudoeste 34 Oeste 0 -- -- 32
2019-05-18 11:00:00 18.3 4 Sudoeste 17 Sudoeste 0 -- -- 33
2019-05-18 10:00:00 15.2 4 Sudoeste 13 Sudoeste 0 -- -- 47
2019-05-18 09:00:00 14.6 9 Sudoeste 19 Oeste 0 -- -- 50
2019-05-18 08:00:00 13.8 6 Sudoeste 20 Sudoeste 0 -- -- 54
2019-05-18 07:00:00 14.7 10 Sudoeste 26 Sudoeste 0 -- -- 49
2019-05-18 06:00:00 15.1 12 Sudoeste 28 Sudoeste 0 -- -- 50
2019-05-18 05:00:00 14.5 4 Sur 18 Sudeste 0 -- -- 53
2019-05-18 04:00:00 14.4 2 Nordeste 10 Nordeste 0 -- -- 55
2019-05-18 03:00:00 15.4 5 Sudeste 10 Sudeste 0 -- -- 50
2019-05-18 02:00:00 15.1 4 Nordeste 8 Este 0 -- -- 55
2019-05-18 01:00:00 15.5 2 Este 13 Sur 0 -- -- 55
2019-05-18 00:00:00 15.7 6 Sur 15 Sudeste 0 -- -- 56
2019-05-17 23:00:00 16.4 4 Sur 16 Sudoeste 0 -- -- 51
2019-05-17 22:00:00 17.9 9 Sudoeste 23 Sudoeste 0 -- -- 47
2019-05-17 21:00:00 19.9 11 Sudoeste 23 Oeste 0 -- -- 42
2019-05-17 20:00:00 21.9 10 Sudoeste 30 Oeste 0 -- -- 28
2019-05-17 19:00:00 22.4 10 Oeste 39 Sudoeste 0 -- -- 26
2019-05-17 18:00:00 23.5 17 Sudoeste 37 Sudoeste 0 -- -- 25
2019-05-17 17:00:00 24.7 16 Sudoeste 36 Sudoeste 0 -- -- 26
2019-05-17 16:00:00 21.6 6 Oeste 26 Noroeste 0 -- -- 29
2019-05-17 15:00:00 21.6 8 Sudoeste 30 Norte 0 -- -- 25
2019-05-17 14:00:00 22.2 7 Sudoeste 26 Nordeste 0 -- -- 29
2019-05-17 13:00:00 21 5 Norte 20 Nordeste 0 -- -- 35
2019-05-17 12:00:00 19.5 7 Sur 15 Sudoeste 0 -- -- 39
2019-05-17 11:00:00 18.4 6 Sudoeste 12 Sudoeste 0 -- -- 41
2019-05-17 10:00:00 17.2 4 Sudoeste 13 Nordeste 0 -- -- 42
2019-05-17 09:00:00 16.3 4 Nordeste 15 Sur 0 -- -- 40
2019-05-17 08:00:00 13.8 4 Sudeste 12 Este 0 -- -- 33
2019-05-17 07:00:00 13.9 6 Sur 16 Este 0 -- -- 32
2019-05-17 06:00:00 14.5 4 Sur 14 Sudeste 0 -- -- 37
2019-05-17 05:00:00 15.4 5 Sur 24 Norte 0 -- -- 41
2019-05-17 04:00:00 16.6 5 Este 29 Sudoeste 0 -- -- 41
2019-05-17 03:00:00 17.8 6 Sur 21 Sudoeste 0 -- -- 55
2019-05-17 02:00:00 18.6 9 Sudoeste 27 Sudoeste 0 -- -- 53
2019-05-17 01:00:00 19.5 7 Sudoeste 17 Sur 0 -- -- 46
2019-05-17 00:00:00 20.3 4 Sudoeste 28 Sudoeste 0 -- -- 47
2019-05-16 23:00:00 21.2 14 Sudoeste 23 Oeste 0 -- -- 44
2019-05-16 22:00:00 21.9 11 Sudoeste 23 Noroeste 0 -- -- 43
2019-05-16 21:00:00 22.8 6 Oeste 26 Sudoeste 0 -- -- 42
2019-05-16 20:00:00 22.8 5 Sudoeste 16 Sudoeste 0 -- -- 58
2019-05-16 19:00:00 23.2 8 Sudoeste 19 Sudoeste 0 -- -- 63
2019-05-16 18:00:00 23.4 9 Sudoeste 19 Sudoeste 0 -- -- 63
2019-05-16 17:00:00 24.4 8 Sudoeste 20 Sudoeste 0 -- -- 61
2019-05-16 16:00:00 23.9 8 Sudoeste 21 Sudoeste 0 -- -- 61
2019-05-16 15:00:00 22.3 8 Sudoeste 22 Sur 0 -- -- 64
2019-05-16 14:00:00 21.7 6 Sur 21 Sudoeste 0 -- -- 64
2019-05-16 13:00:00 20.9 7 Sur 20 Sur 0 -- -- 63
2019-05-16 12:00:00 20 5 Sur 18 Este 0 -- -- 65
2019-05-16 11:00:00 19.8 6 Sudoeste 15 Sur 0 -- -- 68
2019-05-16 10:00:00 19.2 5 Sudoeste 12 Sudoeste 0 -- -- 71
2019-05-16 09:00:00 17.7 3 Sudoeste 6 Sudoeste 0 -- -- 78
2019-05-16 08:00:00 16.3 3 Sudoeste 5 Sudoeste 0 -- -- 79
2019-05-16 07:00:00 17.3 0 Calma 9 Sudoeste 0 -- -- 77
2019-05-16 06:00:00 20 0 Calma 24 Nordeste 0 -- -- 45
2019-05-16 05:00:00 22.3 5 Nordeste 9 Nordeste 0 -- -- 30
2019-05-16 04:00:00 22.6 0 Calma 9 Nordeste 0 -- -- 27
2019-05-16 03:00:00 23 3 Este 9 Nordeste 0 -- -- 28
2019-05-16 02:00:00 24.9 5 Sudeste 10 Este 0 -- -- 25
2019-05-16 01:00:00 24.1 7 Nordeste 12 Este 0 -- -- 29
2019-05-16 00:00:00 24.8 5 Este 10 Sudeste 0 -- -- 31
2019-05-15 23:00:00 24.2 5 Este 8 Este 0 -- -- 33
2019-05-15 22:00:00 25.9 2 Noroeste 10 Nordeste 0 -- -- 29
2019-05-15 21:00:00 26.6 3 Sudoeste 12 Oeste 0 -- -- 28
2019-05-15 20:00:00 26.3 2 Oeste 8 Sudoeste 0 -- -- 33
2019-05-15 19:00:00 27.1 5 Sudoeste 11 Sudoeste 0 -- -- 31
2019-05-15 18:00:00 28.6 5 Sudoeste 15 Sudoeste 0 -- -- 34
2019-05-15 17:00:00 30.1 7 Sudoeste 15 Sudoeste 0 -- -- 33
2019-05-15 16:00:00 29.5 4 Nordeste 13 Sudoeste 0 -- -- 34
2019-05-15 15:00:00 29.1 7 Sudoeste 14 Sudoeste 0 -- -- 38
2019-05-15 14:00:00 27.4 8 Sudoeste 15 Sudoeste 0 -- -- 42
2019-05-15 13:00:00 26 6 Sur 14 Sudoeste 0 -- -- 46
2019-05-15 12:00:00 24.4 8 Sudoeste 12 Sudoeste 0 -- -- 49
2019-05-15 11:00:00 22 4 Sudoeste 7 Sudoeste 0 -- -- 43
2019-05-15 10:00:00 19.5 3 Sudoeste 4 Sudoeste 0 -- -- 35
2019-05-15 09:00:00 16.3 0 Calma 2 Sudoeste 0 -- -- 53
2019-05-15 08:00:00 13.5 0 Calma 2 Este 0 -- -- 60
2019-05-15 07:00:00 13 0 Calma 3 Sudeste 0 -- -- 63
2019-05-15 06:00:00 13 0 Calma 3 Sudeste 0 -- -- 59
2019-05-15 05:00:00 13.4 0 Calma 3 Sur 0 -- -- 58
2019-05-15 04:00:00 13.6 0 Calma 6 Nordeste 0 -- -- 61
2019-05-15 03:00:00 14.2 5 Nordeste 8 Nordeste 0 -- -- 58
2019-05-15 02:00:00 13.9 3 Nordeste 6 Nordeste 0 -- -- 61
2019-05-15 01:00:00 14.1 4 Nordeste 6 Nordeste 0 -- -- 62
2019-05-15 00:00:00 14.4 0 Calma 2 Oeste 0 -- -- 62
2019-05-14 23:00:00 14.7 0 Calma 2 Sur 0 -- -- 58
2019-05-14 22:00:00 15.8 0 Calma 5 Sudoeste 0 -- -- 55
2019-05-14 21:00:00 17.2 0 Calma 8 Nordeste 0 -- -- 51
2019-05-14 20:00:00 18.5 4 Nordeste 14 Nordeste 0 -- -- 50
2019-05-14 19:00:00 19.9 5 Sur 16 Sudoeste 0 -- -- 46
2019-05-14 18:00:00 20.7 6 Sudoeste 23 Nordeste 0 -- -- 43
2019-05-14 17:00:00 20.7 9 Nordeste 27 Este 0 -- -- 42
2019-05-14 16:00:00 20.7 9 Nordeste 27 Nordeste 0 -- -- 45
2019-05-14 15:00:00 20.6 12 Nordeste 32 Este 0 -- -- 50
2019-05-14 14:00:00 20.8 10 Nordeste 30 Nordeste 0 -- -- 50
2019-05-14 13:00:00 21 9 Nordeste 33 Este 0 -- -- 49
2019-05-14 12:00:00 21 9 Este 32 Nordeste 0 -- -- 30
2019-05-14 11:00:00 20.3 9 Este 23 Nordeste 0 -- -- 34
2019-05-14 10:00:00 19.1 6 Nordeste 19 Nordeste 0 -- -- 43
2019-05-14 09:00:00 16.9 4 Este 22 Este 0 -- -- 42
2019-05-14 08:00:00 14.1 4 Este 15 Nordeste 0 -- -- 47
2019-05-14 07:00:00 13.9 6 Este 12 Este 0 -- -- 45
2019-05-14 06:00:00 14.3 6 Este 14 Norte 0 -- -- 44
2019-05-14 05:00:00 15.3 6 Nordeste 17 Nordeste 0 -- -- 42
2019-05-14 04:00:00 14.9 8 Nordeste 15 Nordeste 0 -- -- 49
2019-05-14 03:00:00 14.9 4 Nordeste 17 Nordeste 0 -- -- 60
2019-05-14 02:00:00 15.5 5 Nordeste 17 Nordeste 0 -- -- 58
2019-05-14 01:00:00 15.3 4 Nordeste 19 Norte 0 -- -- 63
2019-05-14 00:00:00 15.4 4 Nordeste 16 Nordeste 0 -- -- 62
2019-05-13 23:00:00 14.6 0 Calma 3 Sudeste 0 -- -- 61
2019-05-13 22:00:00 15.5 0 Calma 5 Nordeste 0 -- -- 59
2019-05-13 21:00:00 16.5 3 Norte 15 Nordeste 0 -- -- 57
2019-05-13 20:00:00 17.9 8 Nordeste 15 Nordeste 0 -- -- 47
2019-05-13 19:00:00 19 7 Nordeste 15 Nordeste 0 -- -- 48
2019-05-13 18:00:00 20.2 6 Nordeste 18 Este 0 -- -- 47
2019-05-13 17:00:00 21.7 6 Noroeste 17 Nordeste 0 -- -- 46
2019-05-13 16:00:00 21.3 4 Nordeste 18 Nordeste 0 -- -- 45
2019-05-13 15:00:00 21.5 5 Oeste 20 Sudoeste 0 -- -- 45
2019-05-13 14:00:00 22 7 Sur 23 Sudoeste 0 -- -- 43
2019-05-13 13:00:00 21.6 6 Oeste 24 Nordeste 0 -- -- 39
2019-05-13 12:00:00 21.8 8 Norte 22 Norte 0 -- -- 44
2019-05-13 11:00:00 21.6 7 Nordeste 20 Norte 0 -- -- 38
2019-05-13 10:00:00 20 3 Sudoeste 6 Sudoeste 0 -- -- 48
2019-05-13 09:00:00 17.9 0 Calma 3 Sudoeste 0 -- -- 51
2019-05-13 08:00:00 15 0 Calma 4 Este 0 -- -- 59
2019-05-13 07:00:00 14.2 0 Calma 4 Nordeste 0 -- -- 58
2019-05-13 06:00:00 14.2 0 Calma 4 Este 0 -- -- 57
2019-05-13 05:00:00 14.3 0 Calma 3 Sudeste 0 -- -- 58
2019-05-13 04:00:00 14.6 0 Calma 5 Sudeste 0 -- -- 58
2019-05-13 03:00:00 14.9 2 Oeste 4 Sudeste 0 -- -- 57
2019-05-13 02:00:00 14.7 0 Calma 3 Sudeste 0 -- -- 58
2019-05-13 01:00:00 15 0 Calma 4 Nordeste 0 -- -- 56
2019-05-13 00:00:00 15.4 0 Calma 2 Este 0 -- -- 54
2019-05-12 23:00:00 16.1 0 Calma 4 Sur 0 -- -- 52
2019-05-12 22:00:00 17.4 2 Nordeste 6 Sudeste 0 -- -- 49
2019-05-12 21:00:00 18.8 3 Norte 10 Nordeste 0 -- -- 46
2019-05-12 20:00:00 19.9 4 Norte 21 Nordeste 0 -- -- 42
2019-05-12 19:00:00 21.2 6 Nordeste 22 Este 0 -- -- 37
2019-05-12 18:00:00 22.4 7 Nordeste 26 Nordeste 0 -- -- 36
2019-05-12 17:00:00 23.3 6 Norte 28 Nordeste 0 -- -- 39
2019-05-12 16:00:00 23.8 9 Nordeste 28 Nordeste 0 -- -- 38
2019-05-12 15:00:00 24.3 11 Nordeste 28 Nordeste 0 -- -- 39
2019-05-12 14:00:00 23.5 11 Nordeste 29 Nordeste 0 -- -- 43
2019-05-12 13:00:00 23.4 10 Este 28 Este 0 -- -- 42
2019-05-12 12:00:00 22.8 9 Este 26 Nordeste 0 -- -- 48
2019-05-12 11:00:00 22.4 8 Este 30 Nordeste 0 -- -- 50
2019-05-12 10:00:00 22 9 Este 33 Este 0 -- -- 43
2019-05-12 09:00:00 21.4 11 Nordeste 33 Nordeste 0 -- -- 43
2019-05-12 08:00:00 20 15 Nordeste 27 Norte 0 -- -- 49
2019-05-12 07:00:00 19.1 14 Nordeste 27 Nordeste 0 -- -- 60
2019-05-12 06:00:00 18.3 4 Este 27 Nordeste 0 -- -- 64
2019-05-12 05:00:00 19.7 13 Nordeste 28 Nordeste 0 -- -- 58
2019-05-12 04:00:00 19.3 10 Nordeste 24 Nordeste 0 -- -- 59
2019-05-12 03:00:00 18.9 4 Nordeste 15 Nordeste 0 -- -- 60
2019-05-12 02:00:00 19.3 4 Nordeste 13 Este 0 -- -- 60
2019-05-12 01:00:00 21.5 7 Nordeste 23 Nordeste 0 -- -- 50
2019-05-12 00:00:00 19.9 8 Nordeste 15 Norte 0 -- -- 59
2019-05-11 23:00:00 20.6 0 Calma 5 Sudeste 0 -- -- 56
2019-05-11 22:00:00 21.3 0 Calma 4 Sur 0 -- -- 55
2019-05-11 21:00:00 23 2 Nordeste 8 Nordeste 0 -- -- 52
2019-05-11 20:00:00 24 6 Nordeste 14 Nordeste 0 -- -- 48
2019-05-11 19:00:00 25.7 5 Sudeste 18 Nordeste 0 -- -- 44
2019-05-11 18:00:00 26.2 6 Nordeste 17 Este 0 -- -- 44
2019-05-11 17:00:00 27.3 8 Sur 23 Nordeste 0 -- -- 41
2019-05-11 16:00:00 27.6 8 Nordeste 19 Nordeste 0 -- -- 40
2019-05-11 15:00:00 28.1 10 Sudoeste 18 Sudoeste 0 -- -- 42
2019-05-11 14:00:00 27.8 9 Sudoeste 18 Sudoeste 0 -- -- 43
2019-05-11 13:00:00 27 9 Sur 19 Sur 0 -- -- 44
2019-05-11 12:00:00 27.6 6 Oeste 10 Sudoeste 0 -- -- 45
2019-05-11 11:00:00 26.6 5 Nordeste 12 Nordeste 0 -- -- 40
2019-05-11 10:00:00 25.7 2 Oeste 8 Este 0 -- -- 35
2019-05-11 09:00:00 23 4 Nordeste 11 Nordeste 0 -- -- 42
2019-05-11 08:00:00 19.8 5 Nordeste 10 Este 0 -- -- 46
2019-05-11 07:00:00 20.3 5 Nordeste 13 Este 0 -- -- 43
2019-05-11 06:00:00 20.7 6 Nordeste 14 Este 0 -- -- 43
2019-05-11 05:00:00 21.1 9 Nordeste 14 Este 0 -- -- 38
2019-05-11 04:00:00 21.1 6 Este 14 Este 0 -- -- 38
2019-05-11 03:00:00 22.5 9 Nordeste 18 Nordeste 0 -- -- 32
2019-05-11 02:00:00 21.8 8 Nordeste 20 Nordeste 0 -- -- 34
2019-05-11 01:00:00 21.8 5 Nordeste 10 Este 0 -- -- 50
2019-05-11 00:00:00 22.1 0 Calma 4 Nordeste 0 -- -- 58
2019-05-10 23:00:00 22.8 5 Nordeste 8 Este 0 -- -- 54
2019-05-10 22:00:00 23.8 0 Calma 5 Sur 0 -- -- 56
2019-05-10 21:00:00 25.7 0 Calma 12 Nordeste 0 -- -- 51
2019-05-10 20:00:00 26.2 8 Nordeste 13 Nordeste 0 -- -- 49
2019-05-10 19:00:00 27.3 3 Nordeste 18 Sur 0 -- -- 47
2019-05-10 18:00:00 28.2 6 Sudoeste 18 Sur 0 -- -- 44
2019-05-10 17:00:00 29.8 7 Sudoeste 17 Sur 0 -- -- 41
2019-05-10 16:00:00 29.7 6 Sur 17 Sudoeste 0 -- -- 39
2019-05-10 15:00:00 29 8 Sudoeste 19 Sur 0 -- -- 40
2019-05-10 14:00:00 28.7 8 Sudoeste 19 Sudoeste 0 -- -- 37
2019-05-10 13:00:00 26.9 7 Sur 18 Sudoeste 0 -- -- 43
2019-05-10 12:00:00 25.7 10 Sur 15 Sudoeste 0 -- -- 42
2019-05-10 11:00:00 25.7 4 Sudoeste 10 Este 0 -- -- 52
2019-05-10 10:00:00 23.9 4 Este 17 Nordeste 0 -- -- 47
2019-05-10 09:00:00 21.7 10 Nordeste 19 Nordeste 0 -- -- 54
2019-05-10 08:00:00 18.3 4 Este 10 Este 0 -- -- 63
2019-05-10 07:00:00 19 7 Nordeste 16 Nordeste 0 -- -- 59
2019-05-10 06:00:00 17.9 8 Este 12 Este 0 -- -- 64
2019-05-10 05:00:00 18.9 6 Nordeste 13 Nordeste 0 -- -- 62
2019-05-10 04:00:00 18.1 7 Nordeste 12 Nordeste 0 -- -- 66
2019-05-10 03:00:00 19 8 Nordeste 16 Nordeste 0 -- -- 63
2019-05-10 02:00:00 18.9 5 Nordeste 11 Este 0 -- -- 66
2019-05-10 01:00:00 19 3 Nordeste 12 Nordeste 0 -- -- 67
2019-05-10 00:00:00 19.1 3 Nordeste 5 Nordeste 0 -- -- 69
2019-05-09 23:00:00 19.9 3 Nordeste 9 Este 0 -- -- 66
2019-05-09 22:00:00 21.2 2 Sur 9 Este 0 -- -- 61
2019-05-09 21:00:00 22.5 4 Nordeste 10 Este 0 -- -- 60
2019-05-09 20:00:00 23.1 5 Nordeste 14 Nordeste 0 -- -- 59
2019-05-09 19:00:00 23.6 8 Nordeste 14 Nordeste 0 -- -- 57
2019-05-09 18:00:00 25.1 6 Sudoeste 19 Sur 0 -- -- 52
2019-05-09 17:00:00 26.3 7 Sur 21 Sur 0 -- -- 50
2019-05-09 16:00:00 26 6 Sudeste 20 Sudoeste 0 -- -- 49
2019-05-09 15:00:00 25.3 8 Sur 20 Sudoeste 0 -- -- 52
2019-05-09 14:00:00 24.7 6 Sudoeste 19 Sur 0 -- -- 52
2019-05-09 13:00:00 23.9 8 Sur 21 Sur 0 -- -- 51
2019-05-09 12:00:00 23.6 4 Sudoeste 13 Sudoeste 0 -- -- 53
2019-05-09 11:00:00 21.5 3 Sudoeste 9 Sudoeste 0 -- -- 57
2019-05-09 10:00:00 19.6 5 Sudoeste 9 Norte 0 -- -- 62
2019-05-09 09:00:00 17.9 4 Nordeste 8 Nordeste 0 -- -- 66
2019-05-09 08:00:00 15.5 0 Calma 7 Este 0 -- -- 74
2019-05-09 07:00:00 15.5 3 Sudeste 9 Sudoeste 0 -- -- 73
2019-05-09 06:00:00 15.8 3 Sudoeste 10 Sur 0 -- -- 71
2019-05-09 05:00:00 16 4 Sur 7 Sudoeste 0 -- -- 69
2019-05-09 04:00:00 16.4 0 Calma 7 Sur 0 -- -- 67
2019-05-09 03:00:00 16.7 2 Sudeste 5 Sudeste 0 -- -- 66
2019-05-09 02:00:00 17.6 2 Sur 8 Sur 0 -- -- 63
2019-05-09 01:00:00 18.4 4 Sur 10 Sur 0 -- -- 61
2019-05-09 00:00:00 19.3 4 Sur 9 Sur 0 -- -- 59
2019-05-08 23:00:00 19.7 4 Sudeste 13 Sur 0 -- -- 58
2019-05-08 22:00:00 19.8 4 Este 15 Sudoeste 0 -- -- 58
2019-05-08 21:00:00 21.4 4 Sudoeste 21 Sudoeste 0 -- -- 53
2019-05-08 20:00:00 22.7 10 Sudoeste 32 Sudoeste 0 -- -- 48
2019-05-08 19:00:00 23.9 15 Sudoeste 30 Sudoeste 0 -- -- 43
2019-05-08 18:00:00 24.4 16 Sudoeste 40 Sudoeste 0 -- -- 41
2019-05-08 17:00:00 27.5 18 Sudoeste 37 Sudoeste 0 -- -- 38
2019-05-08 16:00:00 26.9 17 Sudoeste 42 Sudoeste 0 -- -- 39
2019-05-08 15:00:00 25.8 23 Sudoeste 41 Sudoeste 0 -- -- 40
2019-05-08 14:00:00 25.9 18 Sudoeste 45 Sudoeste 0 -- -- 40
2019-05-08 13:00:00 26 13 Sudoeste 29 Sudoeste 0 -- -- 41
2019-05-08 12:00:00 24.9 9 Sudoeste 31 Sudoeste 0 -- -- 47
2019-05-08 11:00:00 22.9 14 Sudoeste 27 Sudoeste 0 -- -- 48
2019-05-08 10:00:00 21 14 Sudoeste 23 Sudoeste 0 -- -- 55
2019-05-08 09:00:00 18.9 3 Sur 9 Sudoeste 0 -- -- 61
2019-05-08 08:00:00 16.2 3 Sur 8 Sur 0 -- -- 67
2019-05-08 07:00:00 16.7 3 Sur 10 Sudoeste 0 -- -- 62
2019-05-08 06:00:00 17 0 Calma 8 Sudeste 0 -- -- 56
2019-05-08 05:00:00 17.2 3 Sudeste 12 Sudoeste 0 -- -- 54
2019-05-08 04:00:00 17.6 0 Calma 7 Sudeste 0 -- -- 55
2019-05-08 03:00:00 18.3 5 Este 6 Nordeste 0 -- -- 53
2019-05-08 02:00:00 18.4 0 Calma 8 Nordeste 0 -- -- 56
2019-05-08 01:00:00 19.6 6 Este 10 Este 0 -- -- 54
2019-05-08 00:00:00 18.9 0 Calma 8 Nordeste 0 -- -- 62
2019-05-07 23:00:00 19.4 0 Calma 7 Nordeste 0 -- -- 67
2019-05-07 22:00:00 19.7 0 Calma 5 Nordeste 0 -- -- 68
2019-05-07 21:00:00 21 -- -- 14 Nordeste 0 -- -- 64
2019-05-07 20:00:00 22.2 2 Norte 10 Nordeste 0 -- -- 59
2019-05-07 19:00:00 22.8 7 Nordeste 16 Sur 0 -- -- 56
2019-05-07 18:00:00 24.3 5 Sudoeste 20 Sudoeste 0 -- -- 52
2019-05-07 17:00:00 25 10 Sudoeste 23 Sudoeste 0 -- -- 47
2019-05-07 16:00:00 25 9 Sudoeste 23 Sudoeste 0 -- -- 46
2019-05-07 15:00:00 24.4 7 Sudoeste 19 Sudoeste 0 -- -- 41
2019-05-07 14:00:00 23.3 9 Sudoeste 19 Sudoeste 0 -- -- 55
2019-05-07 13:00:00 22.6 11 Sudoeste 17 Sudoeste 0 -- -- 59
2019-05-07 12:00:00 22.2 10 Sudoeste 16 Sudoeste 0 -- -- 63
2019-05-07 11:00:00 21 4 Sudoeste 10 Sudoeste 0 -- -- 65
2019-05-07 10:00:00 19.2 2 Sudoeste 4 Sudoeste 0 -- -- 45
2019-05-07 09:00:00 17.7 0 Calma 5 Nordeste 0 -- -- 47
2019-05-07 08:00:00 15.6 5 Nordeste 13 Nordeste 0 -- -- 51
2019-05-07 07:00:00 15.2 4 Este 8 Nordeste 0 -- -- 49
2019-05-07 06:00:00 15.6 5 Nordeste 9 Nordeste 0 -- -- 55
2019-05-07 05:00:00 15.9 4 Nordeste 6 Este 0 -- -- 59
2019-05-07 04:00:00 16.1 0 Calma 3 Nordeste 0 -- -- 67
2019-05-07 03:00:00 17 0 Calma 6 Este 0 -- -- 68
2019-05-07 02:00:00 18 4 Este 8 Nordeste 0 -- -- 62
2019-05-07 01:00:00 18.3 0 Calma 3 Sudeste 0 -- -- 68
2019-05-07 00:00:00 19.2 0 Calma 6 Nordeste 0 -- -- 64
2019-05-06 23:00:00 20.3 2 Nordeste 13 Nordeste 0 -- -- 61
2019-05-06 22:00:00 20.7 3 Nordeste 8 Este 0 -- -- 60
2019-05-06 21:00:00 22 5 Este 10 Este 0 -- -- 56
2019-05-06 20:00:00 22.7 6 Nordeste 14 Nordeste 0 -- -- 55
2019-05-06 19:00:00 23.4 10 Nordeste 16 Nordeste 0 -- -- 54
2019-05-06 18:00:00 25.2 5 Norte 18 Sur 0 -- -- 47
2019-05-06 17:00:00 27 6 Sudoeste 21 Sudoeste 0 -- -- 42
2019-05-06 16:00:00 26.2 10 Sudoeste 25 Sudoeste 0 -- -- 39
2019-05-06 15:00:00 25.6 7 Sudoeste 24 Sudoeste 0 -- -- 36
2019-05-06 14:00:00 25.3 9 Sudoeste 22 Sudoeste 0 -- -- 41
2019-05-06 13:00:00 24.8 11 Sudoeste 18 Sudoeste 0 -- -- 40
2019-05-06 12:00:00 23.9 8 Sudoeste 17 Sudoeste 0 -- -- 50
2019-05-06 11:00:00 22.6 4 Noroeste 10 Nordeste 0 -- -- 52
2019-05-06 10:00:00 22.1 3 Oeste 11 Nordeste 0 -- -- 51
2019-05-06 09:00:00 19.2 2 Nordeste 6 Este 0 -- -- 55
2019-05-06 08:00:00 16.2 5 Nordeste 6 Nordeste 0 -- -- 68
2019-05-06 07:00:00 16.2 3 Nordeste 7 Este 0 -- -- 65
2019-05-06 06:00:00 16.9 3 Nordeste 9 Este 0 -- -- 64
2019-05-06 05:00:00 17.3 6 Nordeste 8 Nordeste 0 -- -- 67
2019-05-06 04:00:00 17.1 0 Calma 4 Nordeste 0 -- -- 69
2019-05-06 03:00:00 17.5 0 Calma 6 Nordeste 0 -- -- 67
2019-05-06 02:00:00 18.1 3 Nordeste 5 Este 0 -- -- 64
2019-05-06 01:00:00 18.1 0 Calma 4 Sur 0 -- -- 64
2019-05-06 00:00:00 18.5 0 Calma 3 Nordeste 0 -- -- 63
2019-05-05 23:00:00 19.1 0 Calma 3 Este 0 -- -- 62
2019-05-05 22:00:00 20.2 3 Nordeste 7 Este 0 -- -- 59
2019-05-05 21:00:00 22.2 5 Nordeste 6 Este 0 -- -- 58
2019-05-05 20:00:00 23.6 2 Nordeste 9 Sudoeste 0 -- -- 46
2019-05-05 19:00:00 24.5 4 Sudeste 16 Sudoeste 0 -- -- 45
2019-05-05 18:00:00 25.6 5 Sudoeste 15 Sudoeste 0 -- -- 43
2019-05-05 17:00:00 26.8 7 Sur 21 Sudoeste 0 -- -- 39
2019-05-05 16:00:00 25.8 6 Norte 23 Nordeste 0 -- -- 48
2019-05-05 15:00:00 24.3 12 Nordeste 24 Nordeste 0 -- -- 47
2019-05-05 14:00:00 24 13 Nordeste 20 Nordeste 0 -- -- 43
2019-05-05 13:00:00 24.5 6 Sur 19 Sudoeste 0 -- -- 46
2019-05-05 12:00:00 23.8 4 Nordeste 15 Nordeste 0 -- -- 56
2019-05-05 11:00:00 22.8 8 Nordeste 12 Nordeste 0 -- -- 50
2019-05-05 10:00:00 20.9 2 Sur 9 Sur 0 -- -- 58
2019-05-05 09:00:00 17.9 4 Nordeste 7 Nordeste 0 -- -- 64
2019-05-05 08:00:00 15.2 5 Nordeste 8 Nordeste 0 -- -- 69
2019-05-05 07:00:00 14.7 3 Este 8 Nordeste 0 -- -- 66
2019-05-05 06:00:00 14.8 0 Calma 5 Nordeste 0 -- -- 64
2019-05-05 05:00:00 15.2 2 Este 8 Este 0 -- -- 64
2019-05-05 04:00:00 15 2 Este 5 Nordeste 0 -- -- 67
2019-05-05 03:00:00 15.5 5 Nordeste 9 Nordeste 0 -- -- 63
2019-05-05 02:00:00 15.4 2 Nordeste 9 Nordeste -- -- -- 72
2019-05-05 01:00:00 15.7 4 Nordeste 11 Nordeste 0 -- -- 76
2019-05-05 00:00:00 15.5 5 Este 8 Este 0 -- -- 81
2019-05-04 23:00:00 15.9 0 Calma 6 Nordeste 0 -- -- 83
2019-05-04 22:00:00 16.7 0 Calma 5 Sudeste 0 -- -- 84
2019-05-04 21:00:00 17.8 0 Calma 8 Nordeste 0 -- -- 83
2019-05-04 20:00:00 18.5 5 Nordeste 13 Nordeste 0 -- -- 80
2019-05-04 19:00:00 20.4 5 Este 15 Sudoeste 0 -- -- 73
2019-05-04 18:00:00 21.3 6 Sudoeste 17 Sudoeste 0 -- -- 72
2019-05-04 17:00:00 20.4 10 Sudoeste 17 Sudoeste 0 -- -- 75
2019-05-04 16:00:00 18.5 3 Sur 15 Sur 0 -- -- 82
2019-05-04 15:00:00 17 5 Sur 14 Sudoeste 0 -- -- 86
2019-05-04 14:00:00 17 -- -- -- -- -- -- -- --
2019-05-04 13:00:00 15.9 5 Sudoeste 18 Oeste 0 -- -- 90
2019-05-04 12:00:00 15.7 9 Sudoeste 21 Oeste 0 -- -- 91
2019-05-04 11:00:00 16 10 Sudoeste 17 Sudoeste 0 -- -- 89
2019-05-04 10:00:00 15.2 5 Sudoeste 11 Sudoeste 0 -- -- 90
2019-05-04 09:00:00 15 2 Sudoeste 7 Sudoeste 0 -- -- 92
2019-05-04 08:00:00 15 0 Calma 8 Sudoeste 0 -- -- 91
2019-05-04 07:00:00 15 3 Sudoeste 9 Sudoeste 0 -- -- 90
2019-05-04 06:00:00 14.9 3 Sudoeste 10 Sudoeste 0 -- -- 90
2019-05-04 05:00:00 14.8 4 Sudoeste 8 Sudoeste 0 -- -- 92
2019-05-04 04:00:00 15 3 Sudoeste 8 Nordeste 0 -- -- 91
2019-05-04 03:00:00 15.8 6 Nordeste 24 Oeste 0 -- -- 85
2019-05-04 02:00:00 20.3 9 Sudoeste 23 Sudoeste 0 -- -- 52
2019-05-04 01:00:00 19.2 8 Sudoeste 24 Noroeste 0 -- -- 53
2019-05-04 00:00:00 18.3 6 Sudoeste 14 Sudoeste 0 -- -- 59
2019-05-03 23:00:00 17.7 8 Sudoeste 14 Sudoeste 0 -- -- 72
2019-05-03 22:00:00 17.2 3 Sudoeste 8 Sudoeste 0 -- -- 80
2019-05-03 21:00:00 18.3 4 Sudoeste 9 Sudoeste 0 -- -- 76
2019-05-03 20:00:00 19.2 5 Sudoeste 17 Sudoeste 0 -- -- 73
2019-05-03 19:00:00 20.2 9 Sudoeste 20 Sudoeste 0 -- -- 69
2019-05-03 18:00:00 21.4 8 Sudoeste 18 Sudoeste 0 -- -- 60
2019-05-03 17:00:00 21.4 9 Sudoeste 25 Sudoeste 0 -- -- 63
2019-05-03 16:00:00 21.1 7 Sur 22 Sur 0 -- -- 60
2019-05-03 15:00:00 20.6 7 Sur 22 Sudoeste 0 -- -- 53
2019-05-03 14:00:00 20.8 8 Sudoeste 19 Sudoeste 0 -- -- 53
2019-05-03 13:00:00 20 6 Sur 16 Sudoeste 0 -- -- 50
2019-05-03 12:00:00 18.5 5 Sur 14 Oeste 0 -- -- 63
2019-05-03 11:00:00 17.6 3 Sudoeste 9 Oeste 0 -- -- 70
2019-05-03 10:00:00 15.4 3 Sudoeste 7 Sudoeste 0 -- -- 76
2019-05-03 09:00:00 13.1 0 Calma 2 Sudoeste 0 -- -- 84
2019-05-03 08:00:00 11.4 0 Calma 2 Sudeste 0 -- -- 90
2019-05-03 07:00:00 11.1 0 Calma 3 Este 0 -- -- 89
2019-05-03 06:00:00 11.3 0 Calma 3 Este 0 -- -- 90
2019-05-03 05:00:00 11.5 0 Calma 3 Sur 0 -- -- 89
2019-05-03 04:00:00 11.7 0 Calma 4 Sur 0 -- -- 86
2019-05-03 03:00:00 12 0 Calma 3 Nordeste 0 -- -- 86
2019-05-03 02:00:00 12.3 0 Calma 7 Nordeste 0 -- -- 84
2019-05-03 01:00:00 13.1 3 Nordeste 11 Nordeste 0 -- -- 82
2019-05-03 00:00:00 13.3 5 Este 12 Nordeste 0 -- -- 82
2019-05-02 23:00:00 13.3 5 Nordeste 12 Nordeste 0 -- -- 86
2019-05-02 22:00:00 14.2 4 Nordeste 6 Nordeste 0 -- -- 82
2019-05-02 21:00:00 15.6 0 Calma 10 Este 0 -- -- 75
2019-05-02 20:00:00 16.2 6 Nordeste 17 Este 0 -- -- 73
2019-05-02 19:00:00 17.1 9 Nordeste 19 Nordeste 0 -- -- 67
2019-05-02 18:00:00 18.5 9 Nordeste 21 Nordeste 0 -- -- 59
2019-05-02 17:00:00 19.3 8 Nordeste 21 Oeste 0 -- -- 58
2019-05-02 16:00:00 20.2 7 Nordeste 18 Nordeste 0 -- -- 54
2019-05-02 15:00:00 19.6 8 Nordeste 25 Nordeste 0 -- -- 54
2019-05-02 14:00:00 20.7 9 Nordeste 19 Nordeste 0 -- -- 50
2019-05-02 13:00:00 19.4 9 Nordeste 19 Nordeste 0 -- -- 55
2019-05-02 12:00:00 19 10 Nordeste 20 Nordeste 0 -- -- 56
2019-05-02 11:00:00 17.5 3 Este 15 Nordeste 0 -- -- 62
2019-05-02 10:00:00 16 7 Nordeste 14 Nordeste 0 -- -- 65
2019-05-02 09:00:00 15.2 5 Nordeste 12 Nordeste 0 -- -- 59
2019-05-02 08:00:00 13 0 Calma 4 Sudeste 0 -- -- 70
2019-05-02 07:00:00 13.3 0 Calma 9 Este 0 -- -- 66
2019-05-02 06:00:00 13.7 0 Calma 8 Este 0 -- -- 63
2019-05-02 05:00:00 13.1 0 Calma 5 Sur 0 -- -- 66
2019-05-02 04:00:00 12.9 2 Este 4 Sur 0 -- -- 66
2019-05-02 03:00:00 13.2 0 Calma 6 Sudoeste 0 -- -- 65
2019-05-02 02:00:00 14.3 2 Este 10 Este 0 -- -- 61
2019-05-02 01:00:00 13.5 3 Este 8 Nordeste 0 -- -- 69
2019-05-02 00:00:00 12.9 0 Calma 5 Este 0 -- -- 72
2019-05-01 23:00:00 13.2 0 Calma 3 Sur 0 -- -- 79
2019-05-01 22:00:00 -- -- -- -- -- -- -- -- --
2019-05-01 21:00:00 15.6 3 Nordeste 11 Nordeste 0 -- -- 73
2019-05-01 20:00:00 17.3 3 Nordeste 17 Oeste 0 -- -- 68
2019-05-01 19:00:00 18.9 8 Sur 14 Sur 0 -- -- 63
2019-05-01 18:00:00 18.6 6 Nordeste 19 Sur 0 -- -- 64
2019-05-01 17:00:00 19.8 8 Sudoeste 16 Nordeste 0 -- -- 61
2019-05-01 16:00:00 18.6 8 Nordeste 24 Nordeste 0 -- -- 62
2019-05-01 15:00:00 18.5 9 Nordeste 21 Nordeste 0 -- -- 61
2019-05-01 14:00:00 18.1 9 Nordeste 22 Nordeste 0 -- -- 63
2019-05-01 13:00:00 18.4 9 Nordeste 18 Nordeste 0 -- -- 61
2019-05-01 12:00:00 17.8 10 Nordeste 18 Este 0 -- -- 67
2019-05-01 11:00:00 17.1 5 Sudoeste 12 Sudoeste 0 -- -- 74
2019-05-01 10:00:00 15 2 Sudoeste 5 Sudoeste 0 -- -- 70
2019-05-01 09:00:00 13.1 0 Calma 4 Sudoeste 0 -- -- 80
2019-05-01 08:00:00 11 0 Calma 4 Nordeste 0 -- -- 94
2019-05-01 07:00:00 10.9 0 Calma 2 Este 0 -- -- 94
2019-05-01 06:00:00 11.1 0 Calma 6 Nordeste 0 -- -- 93
2019-05-01 05:00:00 11.3 3 Nordeste 4 Nordeste 0 -- -- 93
2019-05-01 04:00:00 12 0 Calma 6 Sudoeste 0 -- -- 94
2019-05-01 03:00:00 12.3 0 Calma 3 Sudoeste 0 -- -- 91
2019-05-01 02:00:00 12.7 0 Calma 3 Nordeste 0 -- -- 90
2019-05-01 01:00:00 13.1 2 Nordeste 6 Nordeste 0 -- -- 89
2019-05-01 00:00:00 13.3 2 Nordeste 9 Nordeste 0 -- -- 92
2019-04-30 23:00:00 14.1 0 Calma 7 Sur 0 -- -- 87
2019-04-30 22:00:00 15 0 Calma 4 Nordeste 0 -- -- 83
2019-04-30 21:00:00 16.2 3 Nordeste 10 Sudoeste 0 -- -- 79
2019-04-30 20:00:00 18.2 4 Nordeste 14 Sudoeste 0 -- -- 73
2019-04-30 19:00:00 20.9 6 Sudoeste 18 Sudoeste 0 -- -- 65
2019-04-30 18:00:00 21.6 8 Sudoeste 17 Sudoeste 0 -- -- 63
2019-04-30 17:00:00 -- -- -- -- -- -- -- -- --
2019-04-30 16:00:00 -- -- -- -- -- -- -- -- --
2019-04-30 15:00:00 -- -- -- -- -- -- -- -- --
2019-04-30 14:00:00 -- -- -- -- -- -- -- -- --
2019-04-30 13:00:00 -- -- -- -- -- -- -- -- --
2019-04-30 12:00:00 -- -- -- -- -- -- -- -- --
2019-04-30 11:00:00 -- -- -- -- -- -- -- -- --
2019-04-30 10:00:00 -- -- -- -- -- -- -- -- --
2019-04-30 09:00:00 -- -- -- -- -- -- -- -- --
2019-04-30 08:00:00 -- -- -- -- -- -- -- -- --
2019-04-30 07:00:00 -- -- -- -- -- -- -- -- --
2019-04-30 06:00:00 -- -- -- -- -- -- -- -- --
2019-04-30 05:00:00 11.9 0 Calma 4 Nordeste 0 -- -- 65
2019-04-30 04:00:00 12 3 Nordeste 5 Este 0 -- -- 66
2019-04-30 03:00:00 11.7 0 Calma 4 Nordeste 0 -- -- 69
2019-04-30 02:00:00 12.3 0 Calma 3 Sudeste 0 -- -- 65
2019-04-30 01:00:00 12.7 0 Calma 3 Este 0 -- -- 65
2019-04-30 00:00:00 12.9 0 Calma 4 Este 0 -- -- 65
2019-04-29 23:00:00 13.1 0 Calma 3 Este 0 -- -- 66
2019-04-29 22:00:00 14.1 0 Calma 3 Este 0 -- -- 61
2019-04-29 21:00:00 15.6 0 Calma 10 Nordeste 0 -- -- 55
2019-04-29 20:00:00 16.7 6 Nordeste 14 Nordeste 0 -- -- 49
2019-04-29 19:00:00 17.6 9 Nordeste 15 Este 0 -- -- 46
2019-04-29 18:00:00 18.6 7 Nordeste 20 Nordeste 0 -- -- 41
2019-04-29 17:00:00 20 6 Noroeste 23 Nordeste 0 -- -- 40
2019-04-29 16:00:00 20 8 Nordeste 25 Nordeste 0 -- -- 39
2019-04-29 15:00:00 19.9 7 Nordeste 22 Nordeste 0 -- -- 41
2019-04-29 14:00:00 19.6 8 Nordeste 24 Nordeste 0 -- -- 43
2019-04-29 13:00:00 19.9 8 Este 21 Norte 0 -- -- 41
2019-04-29 12:00:00 18.7 9 Nordeste 22 Nordeste 0 -- -- 41
2019-04-29 11:00:00 18.2 8 Nordeste 17 Nordeste 0 -- -- 41
2019-04-29 10:00:00 15.8 4 Nordeste 10 Nordeste 0 -- -- 42
2019-04-29 09:00:00 13.7 0 Calma 5 Sudeste 0 -- -- 52
2019-04-29 08:00:00 12.1 0 Calma 5 Nordeste 0 -- -- 48
2019-04-29 07:00:00 11.4 0 Calma 3 Sudeste 0 -- -- 46
2019-04-29 06:00:00 11.6 0 Calma 6 Nordeste 0 -- -- 53
2019-04-29 05:00:00 12.1 4 Nordeste 8 Nordeste 0 -- -- 48
2019-04-29 04:00:00 12.3 0 Calma 2 Este 0 -- -- 45
2019-04-29 03:00:00 13 0 Calma 7 Este 0 -- -- 42
2019-04-29 02:00:00 14.5 3 Nordeste 15 Nordeste 0 -- -- 37
2019-04-29 01:00:00 15 4 Nordeste 19 Nordeste 0 -- -- 34
2019-04-29 00:00:00 14.3 6 Nordeste 12 Nordeste 0 -- -- 36
2019-04-28 23:00:00 14 3 Este 11 Nordeste 0 -- -- 47
2019-04-28 22:00:00 13.9 2 Este 6 Este 0 -- -- 49
2019-04-28 21:00:00 15.6 0 Calma 14 Nordeste 0 -- -- 47
2019-04-28 20:00:00 17 6 Nordeste 20 Nordeste 0 -- -- 40
2019-04-28 19:00:00 18.2 8 Nordeste 23 Nordeste 0 -- -- 36
2019-04-28 18:00:00 19.1 9 Nordeste 27 Nordeste 0 -- -- 35
2019-04-28 17:00:00 19.8 9 Nordeste 24 Nordeste 0 -- -- 34
2019-04-28 16:00:00 19.7 9 Nordeste 30 Nordeste 0 -- -- 33
2019-04-28 15:00:00 20.6 9 Nordeste 28 Nordeste 0 -- -- 33
2019-04-28 14:00:00 20.4 10 Este 31 Nordeste 0 -- -- 36
2019-04-28 13:00:00 -- -- -- -- -- -- -- -- --
2019-04-28 12:00:00 -- -- -- -- -- -- -- -- --
2019-04-28 11:00:00 -- -- -- -- -- -- -- -- --
2019-04-28 10:00:00 -- -- -- -- -- -- -- -- --
2019-04-28 09:00:00 -- -- -- -- -- -- -- -- --
2019-04-28 08:00:00 -- -- -- -- -- -- -- -- --
2019-04-28 07:00:00 -- -- -- -- -- -- -- -- --
2019-04-28 06:00:00 -- -- -- -- -- -- -- -- --
2019-04-28 05:00:00 -- -- -- -- -- -- -- -- --
2019-04-28 04:00:00 -- -- -- -- -- -- -- -- --
2019-04-28 03:00:00 -- -- -- -- -- -- -- -- --
2019-04-28 02:00:00 15.6 8 Nordeste 17 Nordeste 0 -- -- 41
2019-04-28 01:00:00 -- -- -- -- -- -- -- -- --
2019-04-28 00:00:00 -- -- -- -- -- -- -- -- --
2019-04-27 23:00:00 -- -- -- -- -- -- -- -- --
2019-04-27 22:00:00 -- -- -- -- -- -- -- -- --
2019-04-27 21:00:00 -- -- -- -- -- -- -- -- --
2019-04-27 20:00:00 -- -- -- -- -- -- -- -- --
2019-04-27 19:00:00 -- -- -- -- -- -- -- -- --
2019-04-27 18:00:00 -- -- -- -- -- -- -- -- --
2019-04-27 17:00:00 -- -- -- -- -- -- -- -- --
2019-04-27 16:00:00 -- -- -- -- -- -- -- -- --
2019-04-27 15:00:00 -- -- -- -- -- -- -- -- --
2019-04-27 14:00:00 -- -- -- -- -- -- -- -- --
2019-04-27 13:00:00 19.6 12 Nordeste 38 Nordeste 0 -- -- 40
2019-04-27 12:00:00 19.4 10 Este 33 Este 0 -- -- 38
2019-04-27 11:00:00 18.4 10 Nordeste 32 Este 0 -- -- 41
2019-04-27 10:00:00 17 7 Nordeste 20 Nordeste 0 -- -- 40
2019-04-27 09:00:00 13.5 2 Sudoeste 10 Nordeste 0 -- -- 60
2019-04-27 08:00:00 12.3 3 Nordeste 11 Este 0 -- -- 57
2019-04-27 07:00:00 14.4 6 Nordeste 19 Nordeste 0 -- -- 51
2019-04-27 06:00:00 13.8 10 Nordeste 19 Nordeste 0 -- -- 55
2019-04-27 05:00:00 12.1 7 Nordeste 16 Norte 0 -- -- 59
2019-04-27 04:00:00 10.4 0 Calma 4 Este 0 -- -- 66
2019-04-27 03:00:00 11 2 Este 8 Nordeste 0 -- -- 64
2019-04-27 02:00:00 12 4 Este 9 Nordeste 0 -- -- 58
2019-04-27 01:00:00 14.1 6 Nordeste 22 Nordeste 0 -- -- 53
2019-04-27 00:00:00 15.4 12 Nordeste 25 Norte 0 -- -- 46
2019-04-26 23:00:00 13.5 5 Nordeste 9 Nordeste 0 -- -- 55
2019-04-26 22:00:00 14.4 3 Nordeste 9 Nordeste 0 -- -- 53
2019-04-26 21:00:00 16 5 Este 9 Sudoeste 0 -- -- 50
2019-04-26 20:00:00 18.1 3 Sudoeste 15 Sudoeste 0 -- -- 43
2019-04-26 19:00:00 19.7 6 Sudoeste 17 Sudoeste 0 -- -- 42
2019-04-26 18:00:00 20.2 7 Sudoeste 19 Sudoeste 0 -- -- 40
2019-04-26 17:00:00 20.1 8 Sudoeste 23 Sudoeste 0 -- -- 45
2019-04-26 16:00:00 20.3 9 Sur 21 Sudoeste 0 -- -- 43
2019-04-26 15:00:00 19.9 8 Sudoeste 18 Sudoeste 0 -- -- 51
2019-04-26 14:00:00 18.5 5 Sudeste 17 Sur 0 -- -- 47
2019-04-26 13:00:00 18.5 4 Sudoeste 14 Sudoeste 0 -- -- 46
2019-04-26 12:00:00 16.8 8 Sur 17 Sur 0 -- -- 52
2019-04-26 11:00:00 15.8 6 Nordeste 18 Este 0 -- -- 53
2019-04-26 10:00:00 14 7 Nordeste 18 Nordeste 0 -- -- 52
2019-04-26 09:00:00 11.8 8 Nordeste 23 Nordeste 0 -- -- 62
2019-04-26 08:00:00 10.6 17 Nordeste 24 Nordeste 0 -- -- 64
2019-04-26 07:00:00 10.1 6 Nordeste 17 Nordeste 0 -- -- 67
2019-04-26 06:00:00 11 13 Nordeste 22 Nordeste 0 -- -- 63
2019-04-26 05:00:00 11 5 Nordeste 19 Norte 0 -- -- 64
2019-04-26 04:00:00 12.2 8 Norte 30 Oeste 0 -- -- 57
2019-04-26 03:00:00 11.1 7 Oeste 26 Noroeste 0 -- -- 70
2019-04-26 02:00:00 10.4 4 Oeste 21 Sudoeste 0 -- -- 75
2019-04-26 01:00:00 10.1 0 Calma 4 Sudeste 0 -- -- 82
2019-04-26 00:00:00 10.7 0 Calma 6 Oeste 0 -- -- 79